sensor_id;sensor_type;location;lat;lon;timestamp;P1;durP1;ratioP1;P2;durP2;ratioP2
18286;SDS011;9269;50.838;12.094;2024-01-15T00:01:26;16.60;;;8.87;;
18286;SDS011;9269;50.838;12.094;2024-01-15T00:03:55;13.93;;;7.90;;
18286;SDS011;9269;50.838;12.094;2024-01-15T00:06:26;13.67;;;8.10;;
18286;SDS011;9269;50.838;12.094;2024-01-15T00:08:58;13.97;;;8.80;;
18286;SDS011;9269;50.838;12.094;2024-01-15T00:11:31;11.10;;;6.70;;
18286;SDS011;9269;50.838;12.094;2024-01-15T00:14:04;14.03;;;7.77;;
18286;SDS011;9269;50.838;12.094;2024-01-15T00:16:33;13.73;;;8.27;;
18286;SDS011;9269;50.838;12.094;2024-01-15T00:23:03;13.43;;;8.60;;
18286;SDS011;9269;50.838;12.094;2024-01-15T00:25:44;12.37;;;7.73;;
18286;SDS011;9269;50.838;12.094;2024-01-15T00:28:14;12.40;;;8.60;;
18286;SDS011;9269;50.838;12.094;2024-01-15T00:30:44;12.43;;;7.70;;
18286;SDS011;9269;50.838;12.094;2024-01-15T00:33:15;12.93;;;7.70;;
18286;SDS011;9269;50.838;12.094;2024-01-15T00:35:52;12.17;;;7.53;;
18286;SDS011;9269;50.838;12.094;2024-01-15T00:38:22;11.57;;;8.00;;
18286;SDS011;9269;50.838;12.094;2024-01-15T00:40:54;10.63;;;6.60;;
18286;SDS011;9269;50.838;12.094;2024-01-15T00:43:41;10.90;;;7.07;;
18286;SDS011;9269;50.838;12.094;2024-01-15T00:46:29;14.07;;;7.47;;
18286;SDS011;9269;50.838;12.094;2024-01-15T00:48:58;12.87;;;7.60;;
18286;SDS011;9269;50.838;12.094;2024-01-15T00:51:27;11.53;;;7.87;;
18286;SDS011;9269;50.838;12.094;2024-01-15T00:53:57;9.60;;;6.40;;
18286;SDS011;9269;50.838;12.094;2024-01-15T00:56:26;12.20;;;7.40;;
18286;SDS011;9269;50.838;12.094;2024-01-15T00:58:58;12.60;;;7.30;;
18286;SDS011;9269;50.838;12.094;2024-01-15T01:01:47;10.57;;;6.03;;
18286;SDS011;9269;50.838;12.094;2024-01-15T01:04:15;15.90;;;8.10;;
18286;SDS011;9269;50.838;12.094;2024-01-15T01:06:47;13.07;;;8.10;;
18286;SDS011;9269;50.838;12.094;2024-01-15T01:09:17;10.00;;;7.17;;
18286;SDS011;9269;50.838;12.094;2024-01-15T01:11:45;12.40;;;8.37;;
18286;SDS011;9269;50.838;12.094;2024-01-15T01:14:17;14.50;;;8.20;;
18286;SDS011;9269;50.838;12.094;2024-01-15T01:16:47;11.83;;;7.87;;
18286;SDS011;9269;50.838;12.094;2024-01-15T01:19:15;11.07;;;7.30;;
18286;SDS011;9269;50.838;12.094;2024-01-15T01:21:44;15.17;;;7.70;;
18286;SDS011;9269;50.838;12.094;2024-01-15T01:24:13;13.23;;;8.03;;
18286;SDS011;9269;50.838;12.094;2024-01-15T01:26:43;10.03;;;7.60;;
18286;SDS011;9269;50.838;12.094;2024-01-15T01:29:13;13.40;;;8.60;;
18286;SDS011;9269;50.838;12.094;2024-01-15T01:31:42;13.80;;;8.37;;
18286;SDS011;9269;50.838;12.094;2024-01-15T01:34:13;14.30;;;8.67;;
18286;SDS011;9269;50.838;12.094;2024-01-15T01:36:43;13.83;;;8.47;;
18286;SDS011;9269;50.838;12.094;2024-01-15T01:39:11;13.07;;;7.97;;
18286;SDS011;9269;50.838;12.094;2024-01-15T01:41:40;12.00;;;7.63;;
18286;SDS011;9269;50.838;12.094;2024-01-15T01:44:10;12.07;;;8.07;;
18286;SDS011;9269;50.838;12.094;2024-01-15T01:46:38;11.40;;;6.63;;
18286;SDS011;9269;50.838;12.094;2024-01-15T01:49:07;12.60;;;7.70;;
18286;SDS011;9269;50.838;12.094;2024-01-15T01:51:37;12.10;;;8.47;;
18286;SDS011;9269;50.838;12.094;2024-01-15T01:54:07;12.73;;;7.90;;
18286;SDS011;9269;50.838;12.094;2024-01-15T01:56:39;12.57;;;7.70;;
18286;SDS011;9269;50.838;12.094;2024-01-15T01:59:11;12.27;;;6.57;;
18286;SDS011;9269;50.838;12.094;2024-01-15T02:01:43;13.43;;;9.13;;
18286;SDS011;9269;50.838;12.094;2024-01-15T02:04:13;13.00;;;7.00;;
18286;SDS011;9269;50.838;12.094;2024-01-15T02:06:48;12.67;;;8.17;;
18286;SDS011;9269;50.838;12.094;2024-01-15T02:09:17;11.60;;;6.10;;
18286;SDS011;9269;50.838;12.094;2024-01-15T02:11:46;9.57;;;5.43;;
18286;SDS011;9269;50.838;12.094;2024-01-15T02:14:16;13.47;;;8.67;;
18286;SDS011;9269;50.838;12.094;2024-01-15T02:16:45;15.70;;;10.00;;
18286;SDS011;9269;50.838;12.094;2024-01-15T02:19:14;12.17;;;7.43;;
18286;SDS011;9269;50.838;12.094;2024-01-15T02:21:49;9.63;;;5.13;;
18286;SDS011;9269;50.838;12.094;2024-01-15T02:24:19;13.67;;;7.63;;
18286;SDS011;9269;50.838;12.094;2024-01-15T02:27:07;15.47;;;8.87;;
18286;SDS011;9269;50.838;12.094;2024-01-15T02:29:36;13.03;;;8.20;;
18286;SDS011;9269;50.838;12.094;2024-01-15T02:32:05;13.07;;;8.27;;
18286;SDS011;9269;50.838;12.094;2024-01-15T02:34:33;15.13;;;8.83;;
18286;SDS011;9269;50.838;12.094;2024-01-15T02:37:03;14.77;;;8.57;;
18286;SDS011;9269;50.838;12.094;2024-01-15T02:39:48;16.47;;;8.37;;
18286;SDS011;9269;50.838;12.094;2024-01-15T02:42:17;13.40;;;8.23;;
18286;SDS011;9269;50.838;12.094;2024-01-15T02:44:48;15.57;;;9.03;;
18286;SDS011;9269;50.838;12.094;2024-01-15T02:47:18;10.90;;;5.33;;
18286;SDS011;9269;50.838;12.094;2024-01-15T02:49:46;15.63;;;8.43;;
18286;SDS011;9269;50.838;12.094;2024-01-15T02:52:15;15.97;;;9.03;;
18286;SDS011;9269;50.838;12.094;2024-01-15T02:54:44;11.73;;;7.80;;
18286;SDS011;9269;50.838;12.094;2024-01-15T02:57:14;12.97;;;7.93;;
18286;SDS011;9269;50.838;12.094;2024-01-15T02:59:43;15.23;;;9.10;;
18286;SDS011;9269;50.838;12.094;2024-01-15T03:02:11;10.27;;;7.40;;
18286;SDS011;9269;50.838;12.094;2024-01-15T03:04:42;13.90;;;8.20;;
18286;SDS011;9269;50.838;12.094;2024-01-15T03:07:16;12.53;;;8.03;;
18286;SDS011;9269;50.838;12.094;2024-01-15T03:09:45;10.43;;;6.90;;
18286;SDS011;9269;50.838;12.094;2024-01-15T03:12:16;14.10;;;8.67;;
18286;SDS011;9269;50.838;12.094;2024-01-15T03:14:52;13.87;;;8.00;;
18286;SDS011;9269;50.838;12.094;2024-01-15T03:17:22;9.80;;;5.53;;
18286;SDS011;9269;50.838;12.094;2024-01-15T03:19:52;12.90;;;7.83;;
18286;SDS011;9269;50.838;12.094;2024-01-15T03:22:22;14.47;;;8.47;;
18286;SDS011;9269;50.838;12.094;2024-01-15T03:24:52;12.63;;;8.23;;
18286;SDS011;9269;50.838;12.094;2024-01-15T03:27:23;15.63;;;8.47;;
18286;SDS011;9269;50.838;12.094;2024-01-15T03:29:53;11.87;;;7.80;;
18286;SDS011;9269;50.838;12.094;2024-01-15T03:32:21;12.40;;;6.87;;
18286;SDS011;9269;50.838;12.094;2024-01-15T03:34:50;7.90;;;5.80;;
18286;SDS011;9269;50.838;12.094;2024-01-15T03:37:19;13.80;;;7.43;;
18286;SDS011;9269;50.838;12.094;2024-01-15T03:39:48;14.27;;;7.17;;
18286;SDS011;9269;50.838;12.094;2024-01-15T03:42:17;13.97;;;8.23;;
18286;SDS011;9269;50.838;12.094;2024-01-15T03:44:46;14.50;;;7.83;;
18286;SDS011;9269;50.838;12.094;2024-01-15T03:47:15;13.13;;;7.97;;
18286;SDS011;9269;50.838;12.094;2024-01-15T03:49:44;10.80;;;6.07;;
18286;SDS011;9269;50.838;12.094;2024-01-15T03:52:14;13.17;;;8.10;;
18286;SDS011;9269;50.838;12.094;2024-01-15T03:54:43;14.50;;;8.50;;
18286;SDS011;9269;50.838;12.094;2024-01-15T03:57:11;16.77;;;9.10;;
18286;SDS011;9269;50.838;12.094;2024-01-15T03:59:40;17.80;;;9.70;;
18286;SDS011;9269;50.838;12.094;2024-01-15T04:02:10;18.40;;;10.27;;
18286;SDS011;9269;50.838;12.094;2024-01-15T04:04:40;14.57;;;9.57;;
18286;SDS011;9269;50.838;12.094;2024-01-15T04:07:10;17.50;;;10.23;;
18286;SDS011;9269;50.838;12.094;2024-01-15T04:09:39;15.03;;;8.70;;
18286;SDS011;9269;50.838;12.094;2024-01-15T04:12:08;21.93;;;11.37;;
18286;SDS011;9269;50.838;12.094;2024-01-15T04:14:36;17.83;;;11.97;;
18286;SDS011;9269;50.838;12.094;2024-01-15T04:17:05;20.20;;;11.23;;
18286;SDS011;9269;50.838;12.094;2024-01-15T04:19:37;21.70;;;12.07;;
18286;SDS011;9269;50.838;12.094;2024-01-15T04:22:06;18.97;;;10.10;;
18286;SDS011;9269;50.838;12.094;2024-01-15T04:24:35;22.17;;;11.10;;
18286;SDS011;9269;50.838;12.094;2024-01-15T04:27:04;18.37;;;11.47;;
18286;SDS011;9269;50.838;12.094;2024-01-15T04:29:33;21.33;;;10.63;;
18286;SDS011;9269;50.838;12.094;2024-01-15T04:32:05;18.30;;;10.33;;
18286;SDS011;9269;50.838;12.094;2024-01-15T04:34:37;18.60;;;10.93;;
18286;SDS011;9269;50.838;12.094;2024-01-15T04:37:07;19.93;;;10.90;;
18286;SDS011;9269;50.838;12.094;2024-01-15T04:39:35;18.90;;;10.87;;
18286;SDS011;9269;50.838;12.094;2024-01-15T04:42:03;18.43;;;10.47;;
18286;SDS011;9269;50.838;12.094;2024-01-15T04:44:52;18.73;;;10.97;;
18286;SDS011;9269;50.838;12.094;2024-01-15T04:47:20;17.53;;;10.40;;
18286;SDS011;9269;50.838;12.094;2024-01-15T04:49:50;18.67;;;9.97;;
18286;SDS011;9269;50.838;12.094;2024-01-15T04:52:19;14.37;;;8.77;;
18286;SDS011;9269;50.838;12.094;2024-01-15T04:54:48;14.57;;;9.07;;
18286;SDS011;9269;50.838;12.094;2024-01-15T04:57:17;15.20;;;9.40;;
18286;SDS011;9269;50.838;12.094;2024-01-15T04:59:46;12.27;;;7.70;;
18286;SDS011;9269;50.838;12.094;2024-01-15T05:02:16;11.97;;;7.53;;
18286;SDS011;9269;50.838;12.094;2024-01-15T05:04:45;13.00;;;7.77;;
18286;SDS011;9269;50.838;12.094;2024-01-15T05:07:16;11.67;;;6.80;;
18286;SDS011;9269;50.838;12.094;2024-01-15T05:09:46;10.00;;;6.67;;
18286;SDS011;9269;50.838;12.094;2024-01-15T05:12:15;11.17;;;7.57;;
18286;SDS011;9269;50.838;12.094;2024-01-15T05:14:44;11.73;;;6.87;;
18286;SDS011;9269;50.838;12.094;2024-01-15T05:17:13;12.90;;;7.00;;
18286;SDS011;9269;50.838;12.094;2024-01-15T05:19:43;10.80;;;7.00;;
18286;SDS011;9269;50.838;12.094;2024-01-15T05:22:12;6.37;;;4.33;;
18286;SDS011;9269;50.838;12.094;2024-01-15T05:24:42;8.30;;;4.53;;
18286;SDS011;9269;50.838;12.094;2024-01-15T05:27:10;9.80;;;5.87;;
18286;SDS011;9269;50.838;12.094;2024-01-15T05:29:42;9.20;;;6.20;;
18286;SDS011;9269;50.838;12.094;2024-01-15T05:32:17;7.27;;;4.93;;
18286;SDS011;9269;50.838;12.094;2024-01-15T05:34:46;7.63;;;4.77;;
18286;SDS011;9269;50.838;12.094;2024-01-15T05:37:17;7.13;;;4.30;;
18286;SDS011;9269;50.838;12.094;2024-01-15T05:39:47;8.73;;;5.77;;
18286;SDS011;9269;50.838;12.094;2024-01-15T05:42:16;10.63;;;6.33;;
18286;SDS011;9269;50.838;12.094;2024-01-15T05:44:47;8.83;;;6.03;;
18286;SDS011;9269;50.838;12.094;2024-01-15T05:47:16;7.57;;;4.63;;
18286;SDS011;9269;50.838;12.094;2024-01-15T05:49:45;7.27;;;5.33;;
18286;SDS011;9269;50.838;12.094;2024-01-15T05:52:14;9.23;;;5.83;;
18286;SDS011;9269;50.838;12.094;2024-01-15T05:54:44;8.87;;;5.50;;
18286;SDS011;9269;50.838;12.094;2024-01-15T05:57:15;8.20;;;5.83;;
18286;SDS011;9269;50.838;12.094;2024-01-15T05:59:44;8.50;;;5.50;;
18286;SDS011;9269;50.838;12.094;2024-01-15T06:02:13;8.97;;;5.10;;
18286;SDS011;9269;50.838;12.094;2024-01-15T06:04:42;9.73;;;5.50;;
18286;SDS011;9269;50.838;12.094;2024-01-15T06:07:30;9.70;;;5.73;;
18286;SDS011;9269;50.838;12.094;2024-01-15T06:10:18;5.27;;;3.40;;
18286;SDS011;9269;50.838;12.094;2024-01-15T06:12:50;8.40;;;5.67;;
18286;SDS011;9269;50.838;12.094;2024-01-15T06:15:21;9.73;;;4.80;;
18286;SDS011;9269;50.838;12.094;2024-01-15T06:17:53;8.17;;;5.13;;
18286;SDS011;9269;50.838;12.094;2024-01-15T06:20:41;8.27;;;5.70;;
18286;SDS011;9269;50.838;12.094;2024-01-15T06:23:27;7.17;;;4.93;;
18286;SDS011;9269;50.838;12.094;2024-01-15T06:25:58;8.57;;;5.70;;
18286;SDS011;9269;50.838;12.094;2024-01-15T06:28:47;8.33;;;5.77;;
18286;SDS011;9269;50.838;12.094;2024-01-15T06:31:35;8.97;;;5.00;;
18286;SDS011;9269;50.838;12.094;2024-01-15T06:34:05;7.90;;;5.00;;
18286;SDS011;9269;50.838;12.094;2024-01-15T06:36:53;8.27;;;5.30;;
18286;SDS011;9269;50.838;12.094;2024-01-15T06:39:22;8.33;;;5.97;;
18286;SDS011;9269;50.838;12.094;2024-01-15T06:42:10;8.13;;;5.80;;
18286;SDS011;9269;50.838;12.094;2024-01-15T06:44:46;8.40;;;5.70;;
18286;SDS011;9269;50.838;12.094;2024-01-15T06:47:21;10.57;;;7.00;;
18286;SDS011;9269;50.838;12.094;2024-01-15T06:50:03;9.77;;;6.37;;
18286;SDS011;9269;50.838;12.094;2024-01-15T06:52:34;11.67;;;6.73;;
18286;SDS011;9269;50.838;12.094;2024-01-15T06:55:14;8.87;;;6.40;;
18286;SDS011;9269;50.838;12.094;2024-01-15T06:58:02;9.20;;;6.33;;
18286;SDS011;9269;50.838;12.094;2024-01-15T07:00:33;9.57;;;6.10;;
18286;SDS011;9269;50.838;12.094;2024-01-15T07:03:11;8.83;;;5.20;;
18286;SDS011;9269;50.838;12.094;2024-01-15T07:05:42;9.17;;;6.13;;
18286;SDS011;9269;50.838;12.094;2024-01-15T07:08:11;7.83;;;5.37;;
18286;SDS011;9269;50.838;12.094;2024-01-15T07:10:40;10.20;;;6.80;;
18286;SDS011;9269;50.838;12.094;2024-01-15T07:13:09;9.47;;;6.93;;
18286;SDS011;9269;50.838;12.094;2024-01-15T07:15:43;13.57;;;9.00;;
18286;SDS011;9269;50.838;12.094;2024-01-15T07:18:31;12.97;;;9.77;;
18286;SDS011;9269;50.838;12.094;2024-01-15T07:21:04;10.40;;;8.00;;
18286;SDS011;9269;50.838;12.094;2024-01-15T07:23:33;10.40;;;7.43;;
18286;SDS011;9269;50.838;12.094;2024-01-15T07:26:04;7.90;;;6.27;;
18286;SDS011;9269;50.838;12.094;2024-01-15T07:28:33;9.23;;;5.00;;
18286;SDS011;9269;50.838;12.094;2024-01-15T07:31:03;8.07;;;6.10;;
18286;SDS011;9269;50.838;12.094;2024-01-15T07:33:34;8.20;;;5.77;;
18286;SDS011;9269;50.838;12.094;2024-01-15T07:36:06;4.23;;;3.47;;
18286;SDS011;9269;50.838;12.094;2024-01-15T07:38:37;6.50;;;4.90;;
18286;SDS011;9269;50.838;12.094;2024-01-15T07:41:06;7.73;;;5.07;;
18286;SDS011;9269;50.838;12.094;2024-01-15T07:43:35;8.40;;;5.60;;
18286;SDS011;9269;50.838;12.094;2024-01-15T07:46:05;7.83;;;4.90;;
18286;SDS011;9269;50.838;12.094;2024-01-15T07:48:37;9.17;;;5.37;;
18286;SDS011;9269;50.838;12.094;2024-01-15T07:51:08;7.53;;;5.17;;
18286;SDS011;9269;50.838;12.094;2024-01-15T07:53:39;8.03;;;4.70;;
18286;SDS011;9269;50.838;12.094;2024-01-15T07:56:08;7.80;;;5.87;;
18286;SDS011;9269;50.838;12.094;2024-01-15T07:58:37;11.93;;;7.60;;
18286;SDS011;9269;50.838;12.094;2024-01-15T08:01:07;14.60;;;8.57;;
18286;SDS011;9269;50.838;12.094;2024-01-15T08:03:36;6.87;;;5.37;;
18286;SDS011;9269;50.838;12.094;2024-01-15T08:06:25;7.10;;;5.57;;
18286;SDS011;9269;50.838;12.094;2024-01-15T08:09:13;8.90;;;5.70;;
18286;SDS011;9269;50.838;12.094;2024-01-15T08:12:02;9.30;;;5.70;;
18286;SDS011;9269;50.838;12.094;2024-01-15T08:14:33;8.60;;;5.47;;
18286;SDS011;9269;50.838;12.094;2024-01-15T08:17:22;6.80;;;4.83;;
18286;SDS011;9269;50.838;12.094;2024-01-15T08:19:56;7.03;;;5.00;;
18286;SDS011;9269;50.838;12.094;2024-01-15T08:22:28;7.50;;;5.23;;
18286;SDS011;9269;50.838;12.094;2024-01-15T08:25:00;5.70;;;4.30;;
18286;SDS011;9269;50.838;12.094;2024-01-15T08:27:28;6.50;;;4.77;;
18286;SDS011;9269;50.838;12.094;2024-01-15T08:29:58;6.93;;;4.53;;
18286;SDS011;9269;50.838;12.094;2024-01-15T08:32:31;7.53;;;4.90;;
18286;SDS011;9269;50.838;12.094;2024-01-15T08:35:03;7.03;;;4.70;;
18286;SDS011;9269;50.838;12.094;2024-01-15T08:37:52;6.50;;;4.53;;
18286;SDS011;9269;50.838;12.094;2024-01-15T08:40:24;6.53;;;3.83;;
18286;SDS011;9269;50.838;12.094;2024-01-15T08:43:03;8.07;;;5.30;;
18286;SDS011;9269;50.838;12.094;2024-01-15T08:45:35;6.80;;;4.23;;
18286;SDS011;9269;50.838;12.094;2024-01-15T08:48:07;8.33;;;4.80;;
18286;SDS011;9269;50.838;12.094;2024-01-15T08:50:41;4.50;;;3.63;;
18286;SDS011;9269;50.838;12.094;2024-01-15T08:53:13;9.50;;;5.40;;
18286;SDS011;9269;50.838;12.094;2024-01-15T08:55:43;8.53;;;5.03;;
18286;SDS011;9269;50.838;12.094;2024-01-15T08:58:13;7.40;;;4.77;;
18286;SDS011;9269;50.838;12.094;2024-01-15T09:00:44;7.90;;;5.23;;
18286;SDS011;9269;50.838;12.094;2024-01-15T09:03:14;6.10;;;4.23;;
18286;SDS011;9269;50.838;12.094;2024-01-15T09:05:44;8.10;;;4.53;;
18286;SDS011;9269;50.838;12.094;2024-01-15T09:08:19;6.73;;;4.03;;
18286;SDS011;9269;50.838;12.094;2024-01-15T09:11:07;6.00;;;4.07;;
18286;SDS011;9269;50.838;12.094;2024-01-15T09:13:38;8.40;;;5.00;;
18286;SDS011;9269;50.838;12.094;2024-01-15T09:16:07;6.37;;;4.50;;
18286;SDS011;9269;50.838;12.094;2024-01-15T09:18:38;6.17;;;4.17;;
18286;SDS011;9269;50.838;12.094;2024-01-15T09:21:18;5.77;;;4.17;;
18286;SDS011;9269;50.838;12.094;2024-01-15T09:23:47;7.33;;;4.50;;
18286;SDS011;9269;50.838;12.094;2024-01-15T09:26:17;7.17;;;5.33;;
18286;SDS011;9269;50.838;12.094;2024-01-15T09:28:47;7.80;;;4.87;;
18286;SDS011;9269;50.838;12.094;2024-01-15T09:31:16;4.47;;;3.07;;
18286;SDS011;9269;50.838;12.094;2024-01-15T09:33:49;8.43;;;5.20;;
18286;SDS011;9269;50.838;12.094;2024-01-15T09:36:22;7.97;;;4.90;;
18286;SDS011;9269;50.838;12.094;2024-01-15T09:39:10;6.77;;;3.80;;
18286;SDS011;9269;50.838;12.094;2024-01-15T09:41:43;7.00;;;4.77;;
18286;SDS011;9269;50.838;12.094;2024-01-15T09:44:14;8.93;;;5.17;;
18286;SDS011;9269;50.838;12.094;2024-01-15T09:46:49;7.53;;;4.80;;
18286;SDS011;9269;50.838;12.094;2024-01-15T09:49:23;5.53;;;4.37;;
18286;SDS011;9269;50.838;12.094;2024-01-15T09:51:53;6.90;;;4.17;;
18286;SDS011;9269;50.838;12.094;2024-01-15T09:54:35;7.80;;;4.80;;
18286;SDS011;9269;50.838;12.094;2024-01-15T09:57:06;6.20;;;3.90;;
18286;SDS011;9269;50.838;12.094;2024-01-15T09:59:37;7.70;;;4.77;;
18286;SDS011;9269;50.838;12.094;2024-01-15T10:02:27;7.77;;;4.30;;
18286;SDS011;9269;50.838;12.094;2024-01-15T10:04:57;6.37;;;3.83;;
18286;SDS011;9269;50.838;12.094;2024-01-15T10:07:35;4.33;;;3.30;;
18286;SDS011;9269;50.838;12.094;2024-01-15T10:10:08;5.53;;;3.57;;
18286;SDS011;9269;50.838;12.094;2024-01-15T10:12:58;7.50;;;4.43;;
18286;SDS011;9269;50.838;12.094;2024-01-15T10:15:28;6.43;;;3.80;;
18286;SDS011;9269;50.838;12.094;2024-01-15T10:17:58;3.20;;;2.80;;
18286;SDS011;9269;50.838;12.094;2024-01-15T10:20:44;6.77;;;4.30;;
18286;SDS011;9269;50.838;12.094;2024-01-15T10:23:21;5.13;;;3.70;;
18286;SDS011;9269;50.838;12.094;2024-01-15T10:25:50;5.47;;;4.10;;
18286;SDS011;9269;50.838;12.094;2024-01-15T10:28:20;7.43;;;4.13;;
18286;SDS011;9269;50.838;12.094;2024-01-15T10:31:08;6.27;;;4.17;;
18286;SDS011;9269;50.838;12.094;2024-01-15T10:33:39;7.03;;;4.07;;
18286;SDS011;9269;50.838;12.094;2024-01-15T10:36:10;6.03;;;4.07;;
18286;SDS011;9269;50.838;12.094;2024-01-15T10:38:40;8.43;;;4.10;;
18286;SDS011;9269;50.838;12.094;2024-01-15T10:41:10;4.50;;;2.57;;
18286;SDS011;9269;50.838;12.094;2024-01-15T10:43:45;6.23;;;4.20;;
18286;SDS011;9269;50.838;12.094;2024-01-15T10:46:13;5.30;;;3.97;;
18286;SDS011;9269;50.838;12.094;2024-01-15T10:48:46;6.03;;;4.40;;
18286;SDS011;9269;50.838;12.094;2024-01-15T10:51:17;6.17;;;4.00;;
18286;SDS011;9269;50.838;12.094;2024-01-15T10:53:47;6.80;;;4.40;;
18286;SDS011;9269;50.838;12.094;2024-01-15T10:56:22;8.03;;;4.20;;
18286;SDS011;9269;50.838;12.094;2024-01-15T10:58:53;5.57;;;3.87;;
18286;SDS011;9269;50.838;12.094;2024-01-15T11:01:29;4.33;;;2.70;;
18286;SDS011;9269;50.838;12.094;2024-01-15T11:04:03;6.03;;;3.73;;
18286;SDS011;9269;50.838;12.094;2024-01-15T11:06:42;7.77;;;4.47;;
18286;SDS011;9269;50.838;12.094;2024-01-15T11:09:13;4.90;;;3.70;;
18286;SDS011;9269;50.838;12.094;2024-01-15T11:11:53;6.13;;;4.03;;
18286;SDS011;9269;50.838;12.094;2024-01-15T11:14:41;5.77;;;3.57;;
18286;SDS011;9269;50.838;12.094;2024-01-15T11:17:15;5.43;;;4.17;;
18286;SDS011;9269;50.838;12.094;2024-01-15T11:19:46;6.47;;;3.70;;
18286;SDS011;9269;50.838;12.094;2024-01-15T11:25:19;5.57;;;4.20;;
18286;SDS011;9269;50.838;12.094;2024-01-15T11:27:49;5.20;;;3.90;;
18286;SDS011;9269;50.838;12.094;2024-01-15T11:30:24;8.17;;;4.87;;
18286;SDS011;9269;50.838;12.094;2024-01-15T11:36:03;10.17;;;5.00;;
18286;SDS011;9269;50.838;12.094;2024-01-15T11:38:43;7.13;;;4.40;;
18286;SDS011;9269;50.838;12.094;2024-01-15T11:41:32;9.23;;;5.00;;
18286;SDS011;9269;50.838;12.094;2024-01-15T11:44:01;8.20;;;5.43;;
18286;SDS011;9269;50.838;12.094;2024-01-15T11:46:32;8.93;;;5.37;;
18286;SDS011;9269;50.838;12.094;2024-01-15T11:49:26;8.03;;;4.53;;
18286;SDS011;9269;50.838;12.094;2024-01-15T11:52:12;7.23;;;5.13;;
18286;SDS011;9269;50.838;12.094;2024-01-15T11:54:51;7.67;;;4.80;;
18286;SDS011;9269;50.838;12.094;2024-01-15T11:57:25;7.77;;;4.50;;
18286;SDS011;9269;50.838;12.094;2024-01-15T12:00:03;6.30;;;4.30;;
18286;SDS011;9269;50.838;12.094;2024-01-15T12:02:53;6.40;;;4.10;;
18286;SDS011;9269;50.838;12.094;2024-01-15T12:05:23;7.27;;;4.37;;
18286;SDS011;9269;50.838;12.094;2024-01-15T12:07:52;4.30;;;3.17;;
18286;SDS011;9269;50.838;12.094;2024-01-15T12:10:23;5.30;;;3.87;;
18286;SDS011;9269;50.838;12.094;2024-01-15T12:13:12;6.67;;;3.90;;
18286;SDS011;9269;50.838;12.094;2024-01-15T12:16:01;6.33;;;4.30;;
18286;SDS011;9269;50.838;12.094;2024-01-15T12:18:32;6.37;;;4.33;;
18286;SDS011;9269;50.838;12.094;2024-01-15T12:21:01;5.77;;;4.10;;
18286;SDS011;9269;50.838;12.094;2024-01-15T12:23:51;6.73;;;3.17;;
18286;SDS011;9269;50.838;12.094;2024-01-15T12:26:25;5.03;;;3.37;;
18286;SDS011;9269;50.838;12.094;2024-01-15T12:28:55;5.17;;;3.60;;
18286;SDS011;9269;50.838;12.094;2024-01-15T12:31:27;8.17;;;3.77;;
18286;SDS011;9269;50.838;12.094;2024-01-15T12:33:57;3.57;;;1.80;;
18286;SDS011;9269;50.838;12.094;2024-01-15T12:36:30;3.80;;;1.97;;
18286;SDS011;9269;50.838;12.094;2024-01-15T12:39:20;6.10;;;3.67;;
18286;SDS011;9269;50.838;12.094;2024-01-15T12:41:50;4.37;;;2.80;;
18286;SDS011;9269;50.838;12.094;2024-01-15T12:44:22;6.00;;;3.53;;
18286;SDS011;9269;50.838;12.094;2024-01-15T12:46:52;5.73;;;3.83;;
18286;SDS011;9269;50.838;12.094;2024-01-15T12:49:31;5.47;;;3.40;;
18286;SDS011;9269;50.838;12.094;2024-01-15T12:52:08;5.60;;;3.23;;
18286;SDS011;9269;50.838;12.094;2024-01-15T12:54:40;5.07;;;3.23;;
18286;SDS011;9269;50.838;12.094;2024-01-15T12:57:12;5.57;;;3.93;;
18286;SDS011;9269;50.838;12.094;2024-01-15T12:59:44;6.93;;;4.50;;
18286;SDS011;9269;50.838;12.094;2024-01-15T13:02:13;9.63;;;5.87;;
18286;SDS011;9269;50.838;12.094;2024-01-15T13:05:02;5.97;;;3.87;;
18286;SDS011;9269;50.838;12.094;2024-01-15T13:07:33;5.47;;;3.17;;
18286;SDS011;9269;50.838;12.094;2024-01-15T13:10:03;5.40;;;3.00;;
18286;SDS011;9269;50.838;12.094;2024-01-15T13:12:34;4.53;;;3.17;;
18286;SDS011;9269;50.838;12.094;2024-01-15T13:15:03;3.13;;;2.37;;
18286;SDS011;9269;50.838;12.094;2024-01-15T13:17:35;4.03;;;2.93;;
18286;SDS011;9269;50.838;12.094;2024-01-15T13:20:05;4.00;;;3.33;;
18286;SDS011;9269;50.838;12.094;2024-01-15T13:22:36;6.50;;;3.83;;
18286;SDS011;9269;50.838;12.094;2024-01-15T13:25:08;7.03;;;4.30;;
18286;SDS011;9269;50.838;12.094;2024-01-15T13:27:41;5.80;;;3.37;;
18286;SDS011;9269;50.838;12.094;2024-01-15T13:30:11;5.97;;;3.60;;
18286;SDS011;9269;50.838;12.094;2024-01-15T13:32:40;6.13;;;3.83;;
18286;SDS011;9269;50.838;12.094;2024-01-15T13:35:10;4.93;;;3.80;;
18286;SDS011;9269;50.838;12.094;2024-01-15T13:37:41;4.80;;;3.30;;
18286;SDS011;9269;50.838;12.094;2024-01-15T13:40:29;6.17;;;4.00;;
18286;SDS011;9269;50.838;12.094;2024-01-15T13:43:02;4.50;;;3.13;;
18286;SDS011;9269;50.838;12.094;2024-01-15T13:45:34;5.23;;;4.07;;
18286;SDS011;9269;50.838;12.094;2024-01-15T13:48:06;6.43;;;4.80;;
18286;SDS011;9269;50.838;12.094;2024-01-15T13:50:40;5.37;;;4.17;;
18286;SDS011;9269;50.838;12.094;2024-01-15T13:53:09;5.63;;;4.20;;
18286;SDS011;9269;50.838;12.094;2024-01-15T13:55:38;14.33;;;8.87;;
18286;SDS011;9269;50.838;12.094;2024-01-15T13:58:08;8.80;;;6.43;;
18286;SDS011;9269;50.838;12.094;2024-01-15T14:00:37;7.57;;;5.07;;
18286;SDS011;9269;50.838;12.094;2024-01-15T14:03:06;4.47;;;3.70;;
18286;SDS011;9269;50.838;12.094;2024-01-15T14:05:36;7.07;;;4.10;;
18286;SDS011;9269;50.838;12.094;2024-01-15T14:08:05;6.33;;;4.20;;
18286;SDS011;9269;50.838;12.094;2024-01-15T14:10:36;6.73;;;4.27;;
18286;SDS011;9269;50.838;12.094;2024-01-15T14:13:06;6.33;;;4.60;;
18286;SDS011;9269;50.838;12.094;2024-01-15T14:15:56;6.37;;;4.90;;
18286;SDS011;9269;50.838;12.094;2024-01-15T14:18:36;5.40;;;2.83;;
18286;SDS011;9269;50.838;12.094;2024-01-15T14:21:05;5.80;;;4.13;;
18286;SDS011;9269;50.838;12.094;2024-01-15T14:23:35;6.87;;;4.17;;
18286;SDS011;9269;50.838;12.094;2024-01-15T14:26:03;5.83;;;4.10;;
18286;SDS011;9269;50.838;12.094;2024-01-15T14:28:35;5.33;;;4.47;;
18286;SDS011;9269;50.838;12.094;2024-01-15T14:31:06;7.17;;;4.03;;
18286;SDS011;9269;50.838;12.094;2024-01-15T14:33:43;6.70;;;4.73;;
18286;SDS011;9269;50.838;12.094;2024-01-15T14:36:12;5.73;;;4.07;;
18286;SDS011;9269;50.838;12.094;2024-01-15T14:38:42;7.03;;;4.27;;
18286;SDS011;9269;50.838;12.094;2024-01-15T14:41:11;6.47;;;5.07;;
18286;SDS011;9269;50.838;12.094;2024-01-15T14:43:40;7.43;;;5.20;;
18286;SDS011;9269;50.838;12.094;2024-01-15T14:46:10;4.30;;;3.17;;
18286;SDS011;9269;50.838;12.094;2024-01-15T14:48:40;5.03;;;4.30;;
18286;SDS011;9269;50.838;12.094;2024-01-15T14:51:09;8.47;;;4.77;;
18286;SDS011;9269;50.838;12.094;2024-01-15T14:53:39;7.77;;;4.63;;
18286;SDS011;9269;50.838;12.094;2024-01-15T14:56:08;6.03;;;4.80;;
18286;SDS011;9269;50.838;12.094;2024-01-15T14:58:37;6.17;;;4.67;;
18286;SDS011;9269;50.838;12.094;2024-01-15T15:01:05;6.00;;;4.47;;
18286;SDS011;9269;50.838;12.094;2024-01-15T15:03:36;8.80;;;5.43;;
18286;SDS011;9269;50.838;12.094;2024-01-15T15:06:06;5.10;;;3.67;;
18286;SDS011;9269;50.838;12.094;2024-01-15T15:08:36;10.80;;;6.93;;
18286;SDS011;9269;50.838;12.094;2024-01-15T15:11:06;23.87;;;13.13;;
18286;SDS011;9269;50.838;12.094;2024-01-15T15:13:35;22.53;;;12.90;;
18286;SDS011;9269;50.838;12.094;2024-01-15T15:16:16;21.00;;;11.90;;
18286;SDS011;9269;50.838;12.094;2024-01-15T15:18:46;19.03;;;12.40;;
18286;SDS011;9269;50.838;12.094;2024-01-15T15:21:16;21.47;;;12.30;;
18286;SDS011;9269;50.838;12.094;2024-01-15T15:23:46;9.97;;;6.47;;